createdAt,value
2023-09-15T00:01:01.940Z,24.30
2023-09-15T00:03:04.467Z,24.30
2023-09-15T00:05:09.737Z,24.30
2023-09-15T00:07:11.484Z,24.30
2023-09-15T00:09:16.820Z,24.30
2023-09-15T00:11:18.766Z,24.30
2023-09-15T00:13:20.699Z,24.30
2023-09-15T00:15:22.596Z,24.30
2023-09-15T00:17:26.198Z,24.30
2023-09-15T00:19:28.166Z,24.30
2023-09-15T00:21:30.161Z,24.30
2023-09-15T00:23:32.750Z,24.30
2023-09-15T00:25:34.709Z,24.30
2023-09-15T00:27:36.792Z,24.30
2023-09-15T00:29:38.513Z,24.30
2023-09-15T00:31:41.207Z,24.30
2023-09-15T00:33:43.220Z,24.30
2023-09-15T00:35:47.966Z,24.30
2023-09-15T00:37:50.615Z,24.30
2023-09-15T00:39:52.361Z,24.20
2023-09-15T00:41:54.412Z,24.20
2023-09-15T00:43:56.208Z,24.20
2023-09-15T00:45:58.077Z,24.20
2023-09-15T00:47:59.976Z,24.20
2023-09-15T00:50:02.795Z,24.20
2023-09-15T00:52:05.692Z,24.20
2023-09-15T00:54:09.763Z,24.20
2023-09-15T00:56:11.678Z,24.20
2023-09-15T00:58:13.712Z,24.20
2023-09-15T01:00:16.032Z,24.20
2023-09-15T01:02:18.112Z,24.20
2023-09-15T01:04:20.343Z,24.20
2023-09-15T01:06:23.895Z,24.20
2023-09-15T01:08:25.633Z,24.20
2023-09-15T01:10:27.781Z,24.20
2023-09-15T01:12:29.521Z,24.20
2023-09-15T01:14:31.483Z,24.20
2023-09-15T01:16:43.110Z,24.20
2023-09-15T01:19:01.412Z,24.20
2023-09-15T01:21:03.283Z,24.10
2023-09-15T01:23:27.202Z,24.10
2023-09-15T01:25:28.907Z,24.10
2023-09-15T01:27:52.314Z,24.10
2023-09-15T01:29:57.841Z,24.10
2023-09-15T01:32:00.737Z,24.10
2023-09-15T01:34:03.473Z,24.10
2023-09-15T01:36:05.623Z,24.10
2023-09-15T01:38:07.393Z,24.10
2023-09-15T01:40:09.538Z,24.10
2023-09-15T01:42:11.407Z,24.10
2023-09-15T01:44:13.619Z,24.10
2023-09-15T01:46:15.413Z,24.10
2023-09-15T01:48:17.907Z,24.10
2023-09-15T01:50:20.827Z,24.10
2023-09-15T01:52:22.872Z,24.10
2023-09-15T01:54:24.908Z,24.10
2023-09-15T01:56:29.915Z,24.00
2023-09-15T01:58:31.785Z,24.10
2023-09-15T02:00:34.654Z,24.00
2023-09-15T02:02:36.585Z,24.00
2023-09-15T02:04:38.943Z,24.00
2023-09-15T02:06:40.759Z,24.00
2023-09-15T02:08:42.488Z,24.00
2023-09-15T02:10:44.241Z,24.00
2023-09-15T02:12:46.224Z,24.00
2023-09-15T02:14:47.998Z,24.00
2023-09-15T02:16:49.851Z,24.00
2023-09-15T02:18:52.213Z,24.00
2023-09-15T02:20:54.823Z,24.00
2023-09-15T02:22:58.272Z,24.00
2023-09-15T02:25:00.142Z,24.00
2023-09-15T02:27:01.977Z,24.00
2023-09-15T02:29:04.322Z,24.00
2023-09-15T02:31:06.496Z,24.00
2023-09-15T02:33:08.618Z,24.00
2023-09-15T02:35:10.313Z,24.00
2023-09-15T02:37:12.137Z,24.00
2023-09-15T02:39:16.700Z,23.90
2023-09-15T02:41:18.728Z,23.90
2023-09-15T02:43:20.495Z,24.00
2023-09-15T02:45:22.274Z,23.90
2023-09-15T02:47:24.986Z,23.90
2023-09-15T02:49:26.727Z,23.90
2023-09-15T02:51:28.761Z,23.90
2023-09-15T02:53:30.599Z,23.90
2023-09-15T02:55:32.422Z,23.90
2023-09-15T02:57:34.149Z,23.90
2023-09-15T02:59:35.827Z,23.90
2023-09-15T03:01:38.253Z,23.90
2023-09-15T03:03:40.387Z,23.90
2023-09-15T03:05:42.198Z,23.80
2023-09-15T03:07:44.091Z,23.90
2023-09-15T03:09:46.023Z,23.80
2023-09-15T03:11:47.904Z,23.80
2023-09-15T03:13:49.736Z,23.80
2023-09-15T03:15:51.663Z,23.80
2023-09-15T03:17:53.957Z,23.80
2023-09-15T03:19:55.747Z,23.80
2023-09-15T03:21:57.427Z,23.80
2023-09-15T03:23:59.292Z,23.80
2023-09-15T03:26:02.077Z,23.80
2023-09-15T03:28:03.990Z,23.80
2023-09-15T03:30:07.426Z,23.80
2023-09-15T03:32:09.255Z,23.80
2023-09-15T03:34:11.094Z,23.80
2023-09-15T03:36:13.273Z,23.80
2023-09-15T03:38:15.026Z,23.80
2023-09-15T03:40:16.766Z,23.80
2023-09-15T03:42:18.665Z,23.80
2023-09-15T03:44:22.199Z,23.80
2023-09-15T03:46:26.121Z,23.80
2023-09-15T03:48:28.139Z,23.80
2023-09-15T03:50:31.943Z,23.70
2023-09-15T03:52:33.680Z,23.70
2023-09-15T03:54:35.456Z,23.80
2023-09-15T03:56:37.281Z,23.70
2023-09-15T03:58:41.476Z,23.70
2023-09-15T04:00:44.203Z,23.70
2023-09-15T04:02:46.151Z,23.70
2023-09-15T04:04:48.064Z,23.70
2023-09-15T04:06:49.955Z,23.70
2023-09-15T04:08:51.781Z,23.70
2023-09-15T04:10:53.523Z,23.70
2023-09-15T04:12:55.346Z,23.70
2023-09-15T04:14:57.082Z,23.70
2023-09-15T04:16:58.992Z,23.70
2023-09-15T04:19:00.823Z,23.70
2023-09-15T04:21:03.196Z,23.70
2023-09-15T04:23:05.021Z,23.70
2023-09-15T04:25:07.753Z,23.70
2023-09-15T04:27:09.508Z,23.70
2023-09-15T04:29:11.303Z,23.70
2023-09-15T04:31:13.111Z,23.60
2023-09-15T04:33:15.124Z,23.70
2023-09-15T04:35:16.895Z,23.70
2023-09-15T04:37:22.101Z,23.70
2023-09-15T04:39:23.882Z,23.70
2023-09-15T04:41:26.485Z,23.70
2023-09-15T04:43:30.930Z,23.60
2023-09-15T04:45:32.935Z,23.60
2023-09-15T04:47:35.682Z,23.60
2023-09-15T04:49:37.571Z,23.60
2023-09-15T04:51:41.582Z,23.60
2023-09-15T04:53:43.535Z,23.60
2023-09-15T04:55:45.246Z,23.60
2023-09-15T04:57:47.345Z,23.60
2023-09-15T04:59:50.076Z,23.60
2023-09-15T05:01:52.488Z,23.60
2023-09-15T05:03:54.962Z,23.60
2023-09-15T05:05:56.780Z,23.60
2023-09-15T05:07:58.578Z,23.60
2023-09-15T05:10:00.390Z,23.60
2023-09-15T05:12:02.131Z,23.60
2023-09-15T05:14:04.047Z,23.60
2023-09-15T05:16:05.834Z,23.60
2023-09-15T05:18:07.665Z,23.60
2023-09-15T05:20:09.902Z,23.60
2023-09-15T05:22:11.694Z,23.60
2023-09-15T05:24:13.834Z,23.60
2023-09-15T05:26:15.590Z,23.60
2023-09-15T05:28:17.384Z,23.60
2023-09-15T05:30:19.157Z,23.60
2023-09-15T05:32:20.989Z,23.60
2023-09-15T05:34:22.861Z,23.60
2023-09-15T05:36:25.133Z,23.60
2023-09-15T05:38:27.572Z,23.60
2023-09-15T05:40:29.557Z,23.60
2023-09-15T05:42:31.418Z,23.60
2023-09-15T05:44:33.301Z,23.60
2023-09-15T05:46:35.240Z,23.60
2023-09-15T05:48:37.042Z,23.60
2023-09-15T05:50:38.864Z,23.60
2023-09-15T05:52:40.777Z,23.50
2023-09-15T05:54:42.628Z,23.50
2023-09-15T05:56:44.379Z,23.60
2023-09-15T05:58:46.356Z,23.50
2023-09-15T06:00:48.353Z,23.60
2023-09-15T06:02:50.267Z,23.60
2023-09-15T06:04:52.274Z,23.60
2023-09-15T06:06:54.555Z,23.60
2023-09-15T06:08:56.334Z,23.50
2023-09-15T06:10:58.087Z,23.50
2023-09-15T06:12:59.838Z,23.50
2023-09-15T06:15:01.636Z,23.50
2023-09-15T06:17:03.926Z,23.50
2023-09-15T06:19:05.874Z,23.50
2023-09-15T06:21:07.665Z,23.50
2023-09-15T06:23:10.016Z,23.50
2023-09-15T06:25:11.871Z,23.50
2023-09-15T06:27:13.620Z,23.50
2023-09-15T06:29:16.778Z,23.50
2023-09-15T06:31:20.128Z,23.50
2023-09-15T06:33:22.313Z,23.50
2023-09-15T06:35:24.336Z,23.50
2023-09-15T06:37:26.114Z,23.50
2023-09-15T06:39:28.153Z,23.50
2023-09-15T06:41:30.016Z,23.50
2023-09-15T06:43:31.989Z,23.50
2023-09-15T06:45:34.400Z,23.50
2023-09-15T06:47:36.142Z,23.50
2023-09-15T06:49:38.030Z,23.50
2023-09-15T06:51:39.791Z,23.50
2023-09-15T06:53:41.486Z,23.50
2023-09-15T06:55:43.204Z,23.50
2023-09-15T06:57:44.964Z,23.50
2023-09-15T06:59:46.971Z,23.50
2023-09-15T07:01:49.271Z,23.50
2023-09-15T07:03:51.265Z,23.50
2023-09-15T07:05:53.116Z,23.50
2023-09-15T07:07:54.868Z,23.50
2023-09-15T07:09:56.672Z,23.50
2023-09-15T07:11:58.467Z,23.50
2023-09-15T07:18:13.818Z,23.50
2023-09-15T07:20:15.637Z,23.50
2023-09-15T07:22:17.460Z,23.50
2023-09-15T07:24:19.253Z,23.50
2023-09-15T07:26:21.199Z,23.50
2023-09-15T07:28:23.302Z,23.50
2023-09-15T07:30:26.921Z,23.50
2023-09-15T07:32:28.749Z,23.50
2023-09-15T07:34:30.810Z,23.50
2023-09-15T07:36:32.817Z,23.50
2023-09-15T07:38:34.774Z,23.50
2023-09-15T07:40:36.909Z,23.60
2023-09-15T07:42:38.716Z,23.60
2023-09-15T07:44:41.487Z,23.60
2023-09-15T07:46:43.425Z,23.60
2023-09-15T07:48:46.568Z,23.50
2023-09-15T07:50:48.599Z,23.60
2023-09-15T07:52:50.443Z,23.60
2023-09-15T07:54:52.368Z,23.60
2023-09-15T07:56:54.223Z,23.60
2023-09-15T07:58:56.005Z,23.60
2023-09-15T08:00:58.453Z,23.60
2023-09-15T08:03:00.425Z,23.70
2023-09-15T08:05:02.279Z,23.60
2023-09-15T08:07:06.653Z,23.70
2023-09-15T08:09:09.955Z,23.70
2023-09-15T08:11:11.716Z,23.70
2023-09-15T08:13:13.449Z,23.70
2023-09-15T08:15:16.228Z,23.70
2023-09-15T08:17:31.140Z,23.70
2023-09-15T08:19:35.617Z,23.70
2023-09-15T08:21:37.493Z,23.70
2023-09-15T08:23:39.327Z,23.70
2023-09-15T08:25:42.492Z,23.70
2023-09-15T08:27:47.975Z,23.80
2023-09-15T08:29:49.973Z,23.80
2023-09-15T08:31:51.943Z,23.80
2023-09-15T08:33:54.097Z,23.70
2023-09-15T08:35:55.826Z,23.70
2023-09-15T08:37:57.579Z,23.70
2023-09-15T08:39:59.544Z,23.80
2023-09-15T08:42:05.621Z,23.80
2023-09-15T08:44:17.281Z,23.80
2023-09-15T08:46:19.525Z,23.80
2023-09-15T08:48:25.346Z,23.80
2023-09-15T08:50:28.048Z,23.80
2023-09-15T08:52:30.533Z,23.80
2023-09-15T08:54:32.432Z,23.80
2023-09-15T08:56:34.374Z,23.80
2023-09-15T08:58:37.124Z,23.80
2023-09-15T09:00:39.641Z,23.80
2023-09-15T09:02:41.848Z,23.80
2023-09-15T09:04:43.834Z,23.80
2023-09-15T09:06:46.505Z,23.80
2023-09-15T09:08:48.989Z,23.90
2023-09-15T09:10:51.023Z,23.80
2023-09-15T09:12:53.105Z,23.80
2023-09-15T09:14:57.507Z,23.80
2023-09-15T09:16:59.531Z,23.90
2023-09-15T09:19:02.550Z,23.80
2023-09-15T09:21:04.732Z,23.80
2023-09-15T09:23:07.847Z,23.90
2023-09-15T09:25:09.652Z,23.90
2023-09-15T09:27:11.912Z,23.90
2023-09-15T09:29:13.961Z,23.90
2023-09-15T09:33:23.691Z,23.90
2023-09-15T09:35:25.948Z,23.90
2023-09-15T09:45:53.475Z,24.00
2023-09-15T09:50:06.480Z,24.00
2023-09-15T09:52:08.228Z,24.00
2023-09-15T09:54:11.173Z,24.00
2023-09-15T09:56:13.523Z,24.00
2023-09-15T09:58:15.817Z,24.00
2023-09-15T10:00:22.606Z,24.00
2023-09-15T10:02:24.340Z,24.10
2023-09-15T10:04:26.219Z,24.10
2023-09-15T10:06:29.079Z,24.10
2023-09-15T10:08:31.390Z,24.10
2023-09-15T10:10:34.068Z,24.10
2023-09-15T10:12:38.866Z,24.10
2023-09-15T10:14:41.343Z,24.10
2023-09-15T10:16:43.148Z,24.10
2023-09-15T10:18:46.129Z,24.10
2023-09-15T10:20:53.872Z,24.10
2023-09-15T10:22:55.748Z,24.20
2023-09-15T10:24:58.534Z,24.20
2023-09-15T10:27:00.545Z,24.20
2023-09-15T10:29:05.178Z,24.20
2023-09-15T10:31:09.635Z,24.20
2023-09-15T10:33:12.834Z,24.10
2023-09-15T10:35:16.688Z,24.20
2023-09-15T10:37:20.728Z,24.20
2023-09-15T10:39:22.607Z,24.20
2023-09-15T10:41:28.418Z,24.30
2023-09-15T10:43:30.257Z,24.30
2023-09-15T10:45:32.731Z,24.30
2023-09-15T10:47:34.470Z,24.30
2023-09-15T10:49:36.199Z,24.30
2023-09-15T10:51:41.222Z,24.30
2023-09-15T10:53:47.156Z,24.30
2023-09-15T10:55:48.971Z,24.40
2023-09-15T10:57:51.072Z,24.30
2023-09-15T10:59:54.731Z,24.40
2023-09-15T11:01:56.642Z,24.40
2023-09-15T11:03:58.678Z,24.40
2023-09-15T11:06:02.384Z,24.40
2023-09-15T11:08:05.371Z,24.50
2023-09-15T11:10:07.794Z,24.50
2023-09-15T11:12:11.982Z,24.50
2023-09-15T11:14:18.215Z,24.50
2023-09-15T11:16:20.312Z,24.50
2023-09-15T11:18:22.139Z,24.50
2023-09-15T11:20:24.067Z,24.60
2023-09-15T11:22:25.964Z,24.60
2023-09-15T11:24:27.773Z,24.60
2023-09-15T11:26:30.725Z,24.60
2023-09-15T11:28:32.972Z,24.60
2023-09-15T11:30:34.729Z,24.60
2023-09-15T11:32:36.634Z,24.60
2023-09-15T11:34:39.508Z,24.60
2023-09-15T11:36:42.385Z,24.60
2023-09-15T11:38:44.433Z,24.70
2023-09-15T11:40:49.555Z,24.70
2023-09-15T11:42:52.040Z,24.70
2023-09-15T11:44:53.874Z,24.70
2023-09-15T11:46:56.689Z,24.70
2023-09-15T11:48:58.667Z,24.70
2023-09-15T11:51:00.656Z,24.80
2023-09-15T11:53:03.884Z,24.80
2023-09-15T11:55:05.918Z,24.80
2023-09-15T11:57:07.849Z,24.80
2023-09-15T11:59:10.042Z,24.80
2023-09-15T12:01:11.869Z,24.80
2023-09-15T12:03:13.700Z,24.80
2023-09-15T12:05:17.036Z,24.90
2023-09-15T12:07:18.967Z,24.90
2023-09-15T12:09:21.367Z,24.90
2023-09-15T12:11:24.242Z,24.90
2023-09-15T12:13:26.139Z,24.90
2023-09-15T12:15:28.830Z,24.90
2023-09-15T12:17:30.674Z,25.00
2023-09-15T12:19:35.620Z,25.00
2023-09-15T12:21:37.394Z,25.00
2023-09-15T12:23:40.551Z,25.00
2023-09-15T12:25:44.471Z,25.00
2023-09-15T12:27:47.599Z,25.00
2023-09-15T12:29:49.323Z,25.00
2023-09-15T12:31:51.646Z,25.00
2023-09-15T12:33:54.139Z,25.00
2023-09-15T12:35:57.469Z,25.00
2023-09-15T12:37:59.290Z,25.00
2023-09-15T12:40:01.224Z,25.10
2023-09-15T12:44:14.098Z,25.10
2023-09-15T12:46:15.889Z,25.10
2023-09-15T12:48:17.684Z,25.10
2023-09-15T12:50:19.784Z,25.10
2023-09-15T12:52:21.680Z,25.10
2023-09-15T12:54:23.617Z,25.20
2023-09-15T12:56:26.251Z,25.20
2023-09-15T12:58:28.007Z,25.20
2023-09-15T13:00:29.861Z,25.10
2023-09-15T13:02:31.927Z,25.10
2023-09-15T13:04:34.136Z,25.20
2023-09-15T13:06:36.086Z,25.20
2023-09-15T13:08:38.108Z,25.20
2023-09-15T13:10:39.889Z,25.20
2023-09-15T13:12:42.476Z,25.20
2023-09-15T13:14:44.616Z,25.20
2023-09-15T13:16:46.453Z,25.20
2023-09-15T13:18:48.297Z,25.20
2023-09-15T13:20:50.069Z,25.20
2023-09-15T13:22:51.974Z,25.20
2023-09-15T13:24:54.084Z,25.30
2023-09-15T13:26:56.087Z,25.20
2023-09-15T13:28:58.056Z,25.20
2023-09-15T13:31:00.171Z,25.30
2023-09-15T13:33:02.394Z,25.30
2023-09-15T13:35:06.344Z,25.30
2023-09-15T13:37:08.348Z,25.30
2023-09-15T13:39:10.268Z,25.30
2023-09-15T13:41:12.769Z,25.30
2023-09-15T13:43:15.024Z,25.30
2023-09-15T13:45:16.933Z,25.30
2023-09-15T13:47:18.681Z,25.40
2023-09-15T13:49:20.489Z,25.40
2023-09-15T13:51:32.344Z,25.40
2023-09-15T13:53:42.552Z,25.40
2023-09-15T13:55:48.847Z,25.40
2023-09-15T13:57:50.901Z,25.40
2023-09-15T13:59:52.717Z,25.50
2023-09-15T14:01:54.717Z,25.40
2023-09-15T14:03:58.507Z,25.40
2023-09-15T14:06:00.523Z,25.50
2023-09-15T14:08:02.281Z,25.50
2023-09-15T14:10:04.131Z,25.40
2023-09-15T14:12:06.034Z,25.50
2023-09-15T14:14:08.053Z,25.50
2023-09-15T14:16:09.818Z,25.50
2023-09-15T14:18:12.218Z,25.50
2023-09-15T14:20:13.951Z,25.60
2023-09-15T14:22:15.791Z,25.60
2023-09-15T14:24:19.737Z,25.60
2023-09-15T14:26:21.476Z,25.70
2023-09-15T14:28:23.239Z,25.70
2023-09-15T14:30:25.350Z,25.70
2023-09-15T14:32:27.071Z,25.70
2023-09-15T14:34:29.111Z,25.70
2023-09-15T14:36:31.258Z,25.70
2023-09-15T14:38:33.053Z,25.70
2023-09-15T14:40:34.815Z,25.70
2023-09-15T14:42:39.146Z,25.70
2023-09-15T14:44:40.930Z,25.70
2023-09-15T14:46:42.843Z,25.70
2023-09-15T14:48:51.494Z,25.70
2023-09-15T14:50:54.705Z,25.70
2023-09-15T14:52:56.546Z,25.70
2023-09-15T14:54:58.824Z,25.70
2023-09-15T14:57:00.632Z,25.70
2023-09-15T14:59:02.519Z,25.70
2023-09-15T15:01:04.646Z,25.70
2023-09-15T15:03:06.447Z,25.70
2023-09-15T15:05:08.324Z,25.70
2023-09-15T15:07:10.210Z,25.70
2023-09-15T15:09:11.982Z,25.70
2023-09-15T15:11:13.777Z,25.60
2023-09-15T15:13:15.522Z,25.60
2023-09-15T15:15:17.345Z,25.60
2023-09-15T15:17:22.144Z,25.60
2023-09-15T15:19:24.767Z,25.60
2023-09-15T15:21:27.244Z,25.60
2023-09-15T15:23:29.210Z,25.60
2023-09-15T15:25:31.054Z,25.60
2023-09-15T15:27:32.813Z,25.50
2023-09-15T15:29:34.632Z,25.50
2023-09-15T15:31:36.466Z,25.50
2023-09-15T15:33:38.590Z,25.50
2023-09-15T15:35:40.773Z,25.50
2023-09-15T15:37:42.676Z,25.50
2023-09-15T15:39:44.742Z,25.50
2023-09-15T15:41:46.679Z,25.50
2023-09-15T15:43:48.554Z,25.50
2023-09-15T15:45:57.240Z,25.50
2023-09-15T15:47:59.243Z,25.50
2023-09-15T15:50:01.076Z,25.50
2023-09-15T15:52:04.108Z,25.50
2023-09-15T15:54:05.909Z,25.50
2023-09-15T15:56:07.793Z,25.50
2023-09-15T15:58:09.584Z,25.50
2023-09-15T16:00:12.226Z,25.50
2023-09-15T16:02:14.553Z,25.50
2023-09-15T16:04:16.480Z,25.50
2023-09-15T16:06:18.360Z,25.50
2023-09-15T16:08:20.110Z,25.50
2023-09-15T16:10:21.801Z,25.50
2023-09-15T16:12:23.608Z,25.50
2023-09-15T16:14:25.451Z,25.50
2023-09-15T16:16:27.518Z,25.50
2023-09-15T16:18:45.881Z,25.50
2023-09-15T16:20:47.760Z,25.50
2023-09-15T16:22:49.909Z,25.50
2023-09-15T16:24:52.737Z,25.50
2023-09-15T16:26:54.531Z,25.50
2023-09-15T16:28:56.396Z,25.50
2023-09-15T16:30:58.259Z,25.50
2023-09-15T16:33:00.808Z,25.50
2023-09-15T16:35:03.392Z,25.40
2023-09-15T16:37:06.343Z,25.50
2023-09-15T16:39:09.145Z,25.50
2023-09-15T16:41:10.903Z,25.50
2023-09-15T16:43:13.995Z,25.50
2023-09-15T16:45:15.846Z,25.50
2023-09-15T16:47:18.350Z,25.40
2023-09-15T16:49:20.271Z,25.40
2023-09-15T16:51:22.093Z,25.40
2023-09-15T16:53:23.884Z,25.40
2023-09-15T16:55:25.667Z,25.40
2023-09-15T16:57:27.586Z,25.40
2023-09-15T16:59:29.306Z,25.40
2023-09-15T17:01:31.105Z,25.40
2023-09-15T17:03:33.147Z,25.40
2023-09-15T17:05:35.028Z,25.40
2023-09-15T17:07:36.790Z,25.40
2023-09-15T17:09:39.428Z,25.40
2023-09-15T17:11:41.222Z,25.40
2023-09-15T17:13:42.950Z,25.40
2023-09-15T17:15:49.107Z,25.40
2023-09-15T17:17:51.958Z,25.40
2023-09-15T17:19:54.017Z,25.40
2023-09-15T17:21:55.780Z,25.40
2023-09-15T17:23:57.620Z,25.40
2023-09-15T17:25:59.377Z,25.40
2023-09-15T17:28:01.447Z,25.40
2023-09-15T17:30:03.568Z,25.40
2023-09-15T17:32:05.677Z,25.40
2023-09-15T17:34:07.828Z,25.30
2023-09-15T17:36:09.588Z,25.30
2023-09-15T17:38:11.297Z,25.40
2023-09-15T17:40:13.173Z,25.40
2023-09-15T17:42:15.047Z,25.40
2023-09-15T17:44:16.824Z,25.40
2023-09-15T17:46:18.573Z,25.30
2023-09-15T17:48:20.480Z,25.30
2023-09-15T17:50:22.376Z,25.30
2023-09-15T17:52:24.107Z,25.30
2023-09-15T17:54:27.104Z,25.30
2023-09-15T17:56:29.022Z,25.30
2023-09-15T17:58:30.962Z,25.30
2023-09-15T18:00:32.818Z,25.30
2023-09-15T18:02:34.905Z,25.30
2023-09-15T18:04:36.615Z,25.30
2023-09-15T18:06:38.355Z,25.30
2023-09-15T18:08:40.116Z,25.30
2023-09-15T18:10:41.836Z,25.30
2023-09-15T18:12:43.637Z,25.30
2023-09-15T18:14:45.773Z,25.30
2023-09-15T18:16:48.420Z,25.30
2023-09-15T18:18:50.652Z,25.30
2023-09-15T18:20:53.557Z,25.30
2023-09-15T18:22:56.306Z,25.30
2023-09-15T18:24:58.885Z,25.30
2023-09-15T18:27:00.625Z,25.30
2023-09-15T18:29:02.655Z,25.20
2023-09-15T18:31:04.553Z,25.20
2023-09-15T18:33:07.069Z,25.20
2023-09-15T18:35:09.900Z,25.20
2023-09-15T18:37:11.574Z,25.30
2023-09-15T18:39:13.281Z,25.20
2023-09-15T18:41:15.597Z,25.20
2023-09-15T18:43:17.588Z,25.20
2023-09-15T18:45:19.568Z,25.20
2023-09-15T18:47:21.324Z,25.20
2023-09-15T18:49:25.741Z,25.10
2023-09-15T18:51:27.463Z,25.10
2023-09-15T18:53:29.246Z,25.10
2023-09-15T18:55:31.059Z,25.10
2023-09-15T18:57:33.364Z,25.10
2023-09-15T18:59:36.302Z,25.10
2023-09-15T19:01:38.353Z,25.10
2023-09-15T19:03:40.506Z,25.10
2023-09-15T19:05:42.393Z,25.10
2023-09-15T19:07:44.664Z,25.10
2023-09-15T19:09:46.509Z,25.10
2023-09-15T19:11:49.794Z,25.10
2023-09-15T19:13:51.599Z,25.10
2023-09-15T19:15:53.382Z,25.10
2023-09-15T19:17:55.663Z,25.10
2023-09-15T19:19:57.641Z,25.10
2023-09-15T19:21:59.714Z,25.10
2023-09-15T19:26:08.607Z,25.00
2023-09-15T19:28:10.525Z,25.10
2023-09-15T19:30:12.650Z,25.10
2023-09-15T19:32:14.654Z,25.10
2023-09-15T19:34:16.472Z,25.10
2023-09-15T19:36:18.561Z,25.00
2023-09-15T19:38:20.324Z,25.10
2023-09-15T19:40:22.172Z,25.10
2023-09-15T19:42:24.849Z,25.10
2023-09-15T19:44:26.657Z,25.10
2023-09-15T19:46:28.609Z,25.10
2023-09-15T19:48:30.727Z,25.00
2023-09-15T19:50:35.061Z,25.10
2023-09-15T19:52:36.781Z,25.10
2023-09-15T19:54:38.611Z,25.00
2023-09-15T19:56:42.110Z,25.00
2023-09-15T19:58:44.229Z,25.00
2023-09-15T20:00:46.365Z,25.00
2023-09-15T20:02:48.679Z,25.00
2023-09-15T20:04:50.614Z,25.00
2023-09-15T20:06:52.632Z,25.00
2023-09-15T20:09:00.380Z,25.00
2023-09-15T20:11:02.339Z,25.00
2023-09-15T20:13:04.540Z,25.00
2023-09-15T20:15:13.231Z,25.00
2023-09-15T20:17:15.188Z,25.00
2023-09-15T20:19:17.576Z,25.00
2023-09-15T20:21:19.318Z,25.00
2023-09-15T20:23:21.300Z,25.00
2023-09-15T20:25:27.723Z,25.00
2023-09-15T20:27:29.643Z,25.00
2023-09-15T20:29:31.721Z,25.10
2023-09-15T20:31:33.535Z,25.00
2023-09-15T20:33:35.445Z,25.00
2023-09-15T20:35:39.455Z,24.90
2023-09-15T20:37:41.411Z,24.90
2023-09-15T20:39:43.495Z,24.90
2023-09-15T20:41:45.262Z,24.90
2023-09-15T20:43:47.451Z,24.90
2023-09-15T20:45:50.125Z,24.90
2023-09-15T20:47:54.535Z,24.90
2023-09-15T20:49:57.187Z,24.90
2023-09-15T20:52:00.165Z,24.90
2023-09-15T20:54:02.079Z,24.90
2023-09-15T20:56:04.028Z,24.90
2023-09-15T20:58:08.896Z,24.90
2023-09-15T21:00:14.557Z,24.90
2023-09-15T21:02:16.625Z,24.90
2023-09-15T21:04:19.082Z,24.90
2023-09-15T21:06:21.701Z,24.90
2023-09-15T21:08:23.533Z,24.90
2023-09-15T21:10:25.344Z,24.90
2023-09-15T21:12:27.511Z,24.90
2023-09-15T21:14:31.651Z,24.90
2023-09-15T21:16:33.475Z,24.90
2023-09-15T21:18:35.365Z,24.90
2023-09-15T21:20:37.113Z,24.90
2023-09-15T21:22:39.268Z,24.90
2023-09-15T21:24:41.176Z,24.90
2023-09-15T21:26:42.937Z,24.90
2023-09-15T21:28:45.109Z,24.90
2023-09-15T21:30:47.931Z,24.90
2023-09-15T21:32:52.280Z,24.80
2023-09-15T21:34:54.116Z,24.80
2023-09-15T21:36:57.582Z,24.90
2023-09-15T21:38:59.575Z,24.80
2023-09-15T21:41:02.461Z,24.80
2023-09-15T21:43:07.682Z,24.80
2023-09-15T21:45:09.776Z,24.80
2023-09-15T21:47:11.676Z,24.80
2023-09-15T21:49:13.628Z,24.80
2023-09-15T21:51:15.734Z,24.80
2023-09-15T21:53:19.735Z,24.80
2023-09-15T21:55:21.482Z,24.80
2023-09-15T21:57:23.370Z,24.80
2023-09-15T21:59:25.143Z,24.80
2023-09-15T22:01:27.886Z,24.80
2023-09-15T22:03:30.116Z,24.80
2023-09-15T22:05:32.001Z,24.80
2023-09-15T22:07:33.845Z,24.80
2023-09-15T22:09:35.828Z,24.80
2023-09-15T22:11:37.678Z,24.80
2023-09-15T22:13:39.539Z,24.80
2023-09-15T22:15:41.484Z,24.80
2023-09-15T22:17:43.794Z,24.80
2023-09-15T22:19:45.508Z,24.80
2023-09-15T22:21:47.234Z,24.70
2023-09-15T22:23:49.453Z,24.80
2023-09-15T22:25:51.172Z,24.70
2023-09-15T22:27:53.442Z,24.70
2023-09-15T22:29:56.927Z,24.80
2023-09-15T22:31:58.747Z,24.70
2023-09-15T22:34:00.529Z,24.70
2023-09-15T22:36:06.596Z,24.70
2023-09-15T22:38:08.633Z,24.70
2023-09-15T22:40:12.079Z,24.70
2023-09-15T22:42:14.020Z,24.70
2023-09-15T22:44:15.885Z,24.70
2023-09-15T22:46:23.292Z,24.70
2023-09-15T22:48:28.179Z,24.70
2023-09-15T22:50:30.157Z,24.70
2023-09-15T22:52:34.415Z,24.70
2023-09-15T22:54:36.396Z,24.60
2023-09-15T22:56:40.147Z,24.70
2023-09-15T22:58:41.847Z,24.70
2023-09-15T23:00:44.134Z,24.70
2023-09-15T23:02:47.764Z,24.70
2023-09-15T23:04:50.609Z,24.60
2023-09-15T23:06:57.089Z,24.60
2023-09-15T23:08:59.737Z,24.60
2023-09-15T23:11:04.690Z,24.60
2023-09-15T23:13:06.580Z,24.60
2023-09-15T23:15:09.192Z,24.60
2023-09-15T23:17:11.667Z,24.60
2023-09-15T23:19:13.451Z,24.60
2023-09-15T23:21:15.421Z,24.60
2023-09-15T23:23:17.214Z,24.60
2023-09-15T23:25:19.237Z,24.60
2023-09-15T23:27:21.089Z,24.60
2023-09-15T23:29:22.918Z,24.60
2023-09-15T23:31:24.746Z,24.60
2023-09-15T23:33:27.367Z,24.60
2023-09-15T23:35:29.102Z,24.50
2023-09-15T23:37:32.053Z,24.50
2023-09-15T23:39:36.239Z,24.50
2023-09-15T23:41:39.312Z,24.50
2023-09-15T23:43:41.043Z,24.50
2023-09-15T23:45:43.117Z,24.50
2023-09-15T23:47:45.261Z,24.50
2023-09-15T23:49:47.073Z,24.50
2023-09-15T23:51:48.868Z,24.50
2023-09-15T23:53:50.611Z,24.50
2023-09-15T23:55:52.625Z,24.50
2023-09-15T23:57:54.394Z,24.50
2023-09-15T23:59:56.164Z,24.50
